createdAt,value
2022-11-20T00:01:26.120Z,17.45
2022-11-20T00:03:55.406Z,16.67
2022-11-20T00:06:23.213Z,14.80
2022-11-20T00:08:50.143Z,15.75
2022-11-20T00:11:19.564Z,15.88
2022-11-20T00:13:48.397Z,18.40
2022-11-20T00:16:18.267Z,16.42
2022-11-20T00:18:45.807Z,18.00
2022-11-20T00:21:16.283Z,15.48
2022-11-20T00:23:43.529Z,16.08
2022-11-20T00:26:12.550Z,19.65
2022-11-20T00:28:39.335Z,16.20
2022-11-20T00:31:17.085Z,16.10
2022-11-20T00:33:44.767Z,15.63
2022-11-20T00:36:15.615Z,15.13
2022-11-20T00:38:43.170Z,16.90
2022-11-20T00:41:12.063Z,15.55
2022-11-20T00:43:39.448Z,17.27
2022-11-20T00:46:09.387Z,16.30
2022-11-20T00:48:36.104Z,17.08
2022-11-20T00:51:03.033Z,16.60
2022-11-20T00:53:29.784Z,17.42
2022-11-20T00:55:58.842Z,17.48
2022-11-20T00:58:29.151Z,17.20
2022-11-20T01:01:05.051Z,19.85
2022-11-20T01:03:33.347Z,17.55
2022-11-20T01:06:12.404Z,15.50
2022-11-20T01:08:39.821Z,14.63
2022-11-20T01:11:09.543Z,16.50
2022-11-20T01:13:39.716Z,20.20
2022-11-20T01:16:34.686Z,20.65
2022-11-20T01:19:03.981Z,16.92
2022-11-20T01:21:36.910Z,18.35
2022-11-20T01:24:05.301Z,17.85
2022-11-20T01:26:34.251Z,16.83
2022-11-20T01:29:02.128Z,16.90
2022-11-20T01:31:37.263Z,16.75
2022-11-20T01:34:08.111Z,18.00
2022-11-20T01:36:37.266Z,17.90
2022-11-20T01:39:11.304Z,17.20
2022-11-20T01:41:56.638Z,18.58
2022-11-20T01:44:59.713Z,17.48
2022-11-20T01:47:56.261Z,17.13
2022-11-20T01:50:27.401Z,19.38
2022-11-20T01:53:09.486Z,18.50
2022-11-20T01:55:42.871Z,19.27
2022-11-20T01:58:09.854Z,24.92
2022-11-20T02:00:36.625Z,19.33
2022-11-20T02:03:09.154Z,20.83
2022-11-20T02:05:35.705Z,17.77
2022-11-20T02:08:04.857Z,17.52
2022-11-20T02:10:31.929Z,17.40
2022-11-20T02:13:18.388Z,17.83
2022-11-20T02:15:45.649Z,20.50
2022-11-20T02:18:15.837Z,23.30
2022-11-20T02:20:49.352Z,20.48
2022-11-20T02:23:33.092Z,20.00
2022-11-20T02:26:04.261Z,20.20
2022-11-20T02:28:31.004Z,20.63
2022-11-20T02:30:57.943Z,20.00
2022-11-20T02:33:24.658Z,17.25
2022-11-20T02:35:51.366Z,17.10
2022-11-20T02:38:18.919Z,18.67
2022-11-20T02:40:45.603Z,18.15
2022-11-20T02:43:12.875Z,19.65
2022-11-20T02:45:39.534Z,17.33
2022-11-20T02:48:07.330Z,18.58
2022-11-20T02:50:33.982Z,15.88
2022-11-20T02:53:00.681Z,15.77
2022-11-20T02:55:27.301Z,18.48
2022-11-20T02:57:54.393Z,18.48
2022-11-20T03:00:21.138Z,21.40
2022-11-20T03:02:47.716Z,20.88
2022-11-20T03:05:14.382Z,20.63
2022-11-20T03:07:41.020Z,19.08
2022-11-20T03:10:08.209Z,17.83
2022-11-20T03:12:34.720Z,17.88
2022-11-20T03:15:01.243Z,17.25
2022-11-20T03:17:27.823Z,18.08
2022-11-20T03:19:54.459Z,18.83
2022-11-20T03:22:21.038Z,16.50
2022-11-20T03:24:48.012Z,18.50
2022-11-20T03:27:14.664Z,19.90
2022-11-20T03:29:41.117Z,17.38
2022-11-20T03:32:07.687Z,16.35
2022-11-20T03:34:34.263Z,17.45
2022-11-20T03:37:00.848Z,21.30
2022-11-20T03:39:27.541Z,18.42
2022-11-20T03:41:54.479Z,17.40
2022-11-20T03:44:22.193Z,17.83
2022-11-20T03:46:48.972Z,21.67
2022-11-20T03:49:15.543Z,17.42
2022-11-20T03:51:42.084Z,18.50
2022-11-20T03:54:09.962Z,18.10
2022-11-20T03:56:39.143Z,17.33
2022-11-20T03:59:06.620Z,18.13
2022-11-20T04:01:36.404Z,25.45
2022-11-20T04:04:03.274Z,16.85
2022-11-20T04:06:32.073Z,20.27
2022-11-20T04:08:59.235Z,19.10
2022-11-20T04:11:27.136Z,19.20
2022-11-20T04:13:59.498Z,18.95
2022-11-20T04:16:29.516Z,19.48
2022-11-20T04:18:58.554Z,19.02
2022-11-20T04:21:28.244Z,18.92
2022-11-20T04:23:55.740Z,19.67
2022-11-20T04:26:24.459Z,19.08
2022-11-20T04:28:51.170Z,18.48
2022-11-20T04:31:20.627Z,21.45
2022-11-20T04:33:47.570Z,18.65
2022-11-20T04:36:23.227Z,18.77
2022-11-20T04:38:58.213Z,19.40
2022-11-20T04:41:33.718Z,17.00
2022-11-20T04:44:04.079Z,17.42
2022-11-20T04:46:40.066Z,20.00
2022-11-20T04:49:07.717Z,19.35
2022-11-20T04:51:34.838Z,17.88
2022-11-20T04:54:01.772Z,21.65
2022-11-20T04:56:28.370Z,19.15
2022-11-20T04:58:55.288Z,17.92
2022-11-20T05:01:24.569Z,17.27
2022-11-20T05:03:52.127Z,17.23
2022-11-20T05:06:21.101Z,20.10
2022-11-20T05:08:48.007Z,15.32
2022-11-20T05:11:17.604Z,17.75
2022-11-20T05:13:44.501Z,17.20
2022-11-20T05:16:16.478Z,16.75
2022-11-20T05:18:43.963Z,18.67
2022-11-20T05:21:12.139Z,20.60
2022-11-20T05:23:40.499Z,24.00
2022-11-20T05:26:09.397Z,20.73
2022-11-20T05:28:35.974Z,19.40
2022-11-20T05:31:10.983Z,20.67
2022-11-20T05:33:37.952Z,17.42
2022-11-20T05:36:05.143Z,18.50
2022-11-20T05:38:32.069Z,20.38
2022-11-20T05:41:12.787Z,19.67
2022-11-20T05:43:41.632Z,17.95
2022-11-20T05:46:10.012Z,21.15
2022-11-20T05:48:38.369Z,18.08
2022-11-20T05:51:07.677Z,17.73
2022-11-20T05:53:35.748Z,19.88
2022-11-20T05:56:12.188Z,18.10
2022-11-20T05:58:39.287Z,17.77
2022-11-20T06:01:18.455Z,19.52
2022-11-20T06:03:50.428Z,16.80
2022-11-20T06:06:18.450Z,18.92
2022-11-20T06:08:46.360Z,18.48
2022-11-20T06:11:14.560Z,18.77
2022-11-20T06:13:42.576Z,16.95
2022-11-20T06:16:10.808Z,19.10
2022-11-20T06:18:37.773Z,20.60
2022-11-20T06:21:09.632Z,19.70
2022-11-20T06:23:36.889Z,17.67
2022-11-20T06:26:09.175Z,17.65
2022-11-20T06:28:36.177Z,19.40
2022-11-20T06:31:04.067Z,20.92
2022-11-20T06:33:31.231Z,21.30
2022-11-20T06:36:01.063Z,18.33
2022-11-20T06:38:29.715Z,19.80
2022-11-20T06:40:56.931Z,19.40
2022-11-20T06:43:24.892Z,17.17
2022-11-20T06:45:55.570Z,22.15
2022-11-20T06:48:24.154Z,20.92
2022-11-20T06:50:51.112Z,21.98
2022-11-20T06:53:17.893Z,20.50
2022-11-20T06:55:48.868Z,19.65
2022-11-20T06:58:16.570Z,23.42
2022-11-20T07:00:43.719Z,24.88
2022-11-20T07:03:12.324Z,18.15
2022-11-20T07:05:39.544Z,21.73
2022-11-20T07:08:06.282Z,19.60
2022-11-20T07:10:33.443Z,21.35
2022-11-20T07:13:00.707Z,20.23
2022-11-20T07:15:27.477Z,21.35
2022-11-20T07:17:54.104Z,21.48
2022-11-20T07:20:20.730Z,17.65
2022-11-20T07:22:47.540Z,18.10
2022-11-20T07:25:14.113Z,25.08
2022-11-20T07:27:40.819Z,19.92
2022-11-20T07:30:07.904Z,28.20
2022-11-20T07:32:34.594Z,21.55
2022-11-20T07:35:01.163Z,21.33
2022-11-20T07:37:27.928Z,20.63
2022-11-20T07:39:54.672Z,21.60
2022-11-20T07:42:21.550Z,23.20
2022-11-20T07:44:51.112Z,20.73
2022-11-20T07:47:17.751Z,20.77
2022-11-20T07:49:44.331Z,25.58
2022-11-20T07:52:11.244Z,23.42
2022-11-20T07:54:38.739Z,20.58
2022-11-20T07:57:05.374Z,20.70
2022-11-20T07:59:31.956Z,22.27
2022-11-20T08:01:58.532Z,20.50
2022-11-20T08:04:25.066Z,20.42
2022-11-20T08:06:53.496Z,24.38
2022-11-20T08:09:20.334Z,21.02
2022-11-20T08:12:05.869Z,22.13
2022-11-20T08:14:32.576Z,22.00
2022-11-20T08:17:00.290Z,110.75
2022-11-20T08:19:26.937Z,23.40
2022-11-20T08:21:53.483Z,25.80
2022-11-20T08:24:20.175Z,24.20
2022-11-20T08:26:46.730Z,26.60
2022-11-20T08:29:13.376Z,24.65
2022-11-20T08:31:39.975Z,20.67
2022-11-20T08:34:09.434Z,22.95
2022-11-20T08:36:37.203Z,22.67
2022-11-20T08:39:04.341Z,25.10
2022-11-20T08:41:32.937Z,25.52
2022-11-20T08:44:07.924Z,37.03
2022-11-20T08:46:40.379Z,24.17
2022-11-20T08:49:09.541Z,26.20
2022-11-20T08:51:36.737Z,27.42
2022-11-20T08:54:06.674Z,25.17
2022-11-20T08:56:33.564Z,26.95
2022-11-20T09:01:47.409Z,26.10
2022-11-20T09:04:15.290Z,25.58
2022-11-20T09:06:42.273Z,27.45
2022-11-20T09:09:09.021Z,26.38
2022-11-20T09:11:36.935Z,32.65
2022-11-20T09:14:03.872Z,25.58
2022-11-20T09:16:31.261Z,31.45
2022-11-20T09:19:20.571Z,24.52
2022-11-20T09:21:44.609Z,31.25
2022-11-20T09:24:11.454Z,25.38
2022-11-20T09:26:38.067Z,21.10
2022-11-20T09:29:04.606Z,21.10
2022-11-20T09:31:31.288Z,24.13
2022-11-20T09:33:58.419Z,21.38
2022-11-20T09:36:25.063Z,21.90
2022-11-20T09:38:51.646Z,21.10
2022-11-20T09:41:48.953Z,23.25
2022-11-20T09:44:41.393Z,25.50
2022-11-20T09:47:53.204Z,25.17
2022-11-20T09:50:35.188Z,20.75
2022-11-20T09:53:23.622Z,24.52
2022-11-20T09:55:50.749Z,28.98
2022-11-20T09:58:30.517Z,22.60
2022-11-20T10:01:01.931Z,24.48
2022-11-20T10:03:42.858Z,23.63
2022-11-20T10:06:16.483Z,25.23
2022-11-20T10:08:51.283Z,31.25
2022-11-20T10:11:41.063Z,23.98
2022-11-20T10:14:46.093Z,28.45
2022-11-20T10:17:37.077Z,27.38
2022-11-20T10:20:29.980Z,33.40
2022-11-20T10:23:14.965Z,32.08
2022-11-20T10:26:14.868Z,30.83
2022-11-20T10:29:08.704Z,39.95
2022-11-20T10:34:31.020Z,31.73
2022-11-20T10:37:07.757Z,32.47
2022-11-20T10:40:05.833Z,35.47
2022-11-20T10:43:03.265Z,63.40
2022-11-20T10:45:48.246Z,38.17
2022-11-20T10:48:23.323Z,46.85
2022-11-20T10:51:36.878Z,36.85
2022-11-20T10:54:23.674Z,39.80
2022-11-20T10:56:53.675Z,40.13
2022-11-20T10:59:45.511Z,36.20
2022-11-20T11:02:16.811Z,36.63
2022-11-20T11:04:49.986Z,41.40
2022-11-20T11:07:23.485Z,42.63
2022-11-20T11:09:55.166Z,54.38
2022-11-20T11:12:25.130Z,44.72
2022-11-20T11:14:58.531Z,38.97
2022-11-20T11:17:35.224Z,39.75
2022-11-20T11:20:11.232Z,42.95
2022-11-20T11:22:50.135Z,37.70
2022-11-20T11:25:27.256Z,40.85
2022-11-20T11:27:57.233Z,37.97
2022-11-20T11:30:26.101Z,39.25
2022-11-20T11:33:05.055Z,43.03
2022-11-20T11:35:31.799Z,42.92
2022-11-20T11:38:08.271Z,40.80
2022-11-20T11:40:37.814Z,40.70
2022-11-20T11:43:38.847Z,38.30
2022-11-20T11:46:26.922Z,47.25
2022-11-20T11:49:20.888Z,42.67
2022-11-20T11:52:14.837Z,46.40
2022-11-20T11:54:56.608Z,41.25
2022-11-20T11:57:41.489Z,51.05
2022-11-20T12:00:30.836Z,40.03
2022-11-20T12:03:13.507Z,44.30
2022-11-20T12:05:44.912Z,84.07
2022-11-20T12:08:18.398Z,47.92
2022-11-20T12:11:04.401Z,45.05
2022-11-20T12:14:04.320Z,87.03
2022-11-20T12:16:37.860Z,42.03
2022-11-20T12:19:11.055Z,81.20
2022-11-20T12:21:56.177Z,47.20
2022-11-20T12:24:29.775Z,50.78
2022-11-20T12:27:15.056Z,48.50
2022-11-20T12:30:00.691Z,56.15
2022-11-20T12:32:45.852Z,61.78
2022-11-20T12:35:42.069Z,48.72
2022-11-20T12:38:40.753Z,51.28
2022-11-20T12:41:13.477Z,48.63
2022-11-20T12:44:48.661Z,46.95
2022-11-20T12:47:32.143Z,42.47
2022-11-20T12:50:14.549Z,48.40
2022-11-20T12:53:06.046Z,47.70
2022-11-20T12:55:57.258Z,46.33
2022-11-20T12:58:32.604Z,44.58
2022-11-20T13:01:43.526Z,48.30
2022-11-20T13:04:32.244Z,48.40
2022-11-20T13:06:59.827Z,46.85
2022-11-20T13:09:28.056Z,52.95
2022-11-20T13:12:17.848Z,56.80
2022-11-20T13:15:06.109Z,53.30
2022-11-20T13:17:38.050Z,51.65
2022-11-20T13:20:07.636Z,58.63
2022-11-20T13:22:59.773Z,55.42
2022-11-20T13:25:37.864Z,46.72
2022-11-20T13:28:27.807Z,51.55
2022-11-20T13:30:56.668Z,51.25
2022-11-20T13:33:38.775Z,52.03
2022-11-20T13:36:22.982Z,43.05
2022-11-20T13:38:52.322Z,51.17
2022-11-20T13:41:43.554Z,50.60
2022-11-20T13:44:10.216Z,50.47
2022-11-20T13:46:44.323Z,50.55
2022-11-20T13:49:19.024Z,50.22
2022-11-20T13:52:04.474Z,50.83
2022-11-20T13:54:52.553Z,50.75
2022-11-20T13:57:37.547Z,51.15
2022-11-20T14:00:12.831Z,56.30
2022-11-20T14:02:41.291Z,54.50
2022-11-20T14:05:19.967Z,48.92
2022-11-20T14:07:48.183Z,55.83
2022-11-20T14:10:25.824Z,92.13
2022-11-20T14:12:55.636Z,69.43
2022-11-20T14:15:28.510Z,52.10
2022-11-20T14:17:55.455Z,58.03
2022-11-20T14:20:27.360Z,46.55
2022-11-20T14:22:57.047Z,51.55
2022-11-20T14:25:31.986Z,52.92
2022-11-20T14:28:01.992Z,51.88
2022-11-20T14:30:49.506Z,43.88
2022-11-20T14:33:16.875Z,45.47
2022-11-20T14:35:52.303Z,49.45
2022-11-20T14:38:25.021Z,48.95
2022-11-20T14:40:51.838Z,49.78
2022-11-20T14:43:25.664Z,80.75
2022-11-20T14:46:04.490Z,48.95
2022-11-20T14:48:49.531Z,47.72
2022-11-20T14:51:35.846Z,75.55
2022-11-20T14:54:14.092Z,51.47
2022-11-20T14:56:41.093Z,55.05
2022-11-20T14:59:10.318Z,52.13
2022-11-20T15:01:38.475Z,56.10
2022-11-20T15:04:11.493Z,58.72
2022-11-20T15:06:51.828Z,48.40
2022-11-20T15:09:18.651Z,55.63
2022-11-20T15:12:01.163Z,61.17
2022-11-20T15:14:29.678Z,57.70
2022-11-20T15:16:56.606Z,51.97
2022-11-20T15:19:26.033Z,55.35
2022-11-20T15:21:52.828Z,54.78
2022-11-20T15:24:20.752Z,60.72
2022-11-20T15:26:48.731Z,56.78
2022-11-20T15:29:20.214Z,55.50
2022-11-20T15:31:46.878Z,53.20
2022-11-20T15:34:14.610Z,50.13
2022-11-20T15:36:42.398Z,57.25
2022-11-20T15:39:09.573Z,45.17
2022-11-20T15:41:37.344Z,52.33
2022-11-20T15:44:05.157Z,56.72
2022-11-20T15:46:38.376Z,46.38
2022-11-20T15:49:06.059Z,54.40
2022-11-20T15:51:37.086Z,45.85
2022-11-20T15:54:19.325Z,49.30
2022-11-20T15:56:46.067Z,37.88
2022-11-20T15:59:13.213Z,49.22
2022-11-20T16:01:41.006Z,44.40
2022-11-20T16:04:16.181Z,42.80
2022-11-20T16:06:43.071Z,39.97
2022-11-20T16:09:10.668Z,47.20
2022-11-20T16:11:37.823Z,44.35
2022-11-20T16:14:24.464Z,42.53
2022-11-20T16:16:52.192Z,42.35
2022-11-20T16:19:19.079Z,74.95
2022-11-20T16:21:45.757Z,61.25
2022-11-20T16:24:14.273Z,58.83
2022-11-20T16:26:41.610Z,36.83
2022-11-20T16:29:08.759Z,32.17
2022-11-20T16:31:35.610Z,29.25
2022-11-20T16:34:11.973Z,23.67
2022-11-20T16:36:43.462Z,27.30
2022-11-20T16:39:10.788Z,29.95
2022-11-20T16:41:38.205Z,18.23
2022-11-20T16:44:10.781Z,22.80
2022-11-20T16:46:38.299Z,16.75
2022-11-20T16:49:07.477Z,14.45
2022-11-20T16:51:36.384Z,16.60
2022-11-20T16:54:05.190Z,12.68
2022-11-20T16:56:32.391Z,18.40
2022-11-20T16:59:01.825Z,18.20
2022-11-20T17:01:29.709Z,14.70
2022-11-20T17:04:00.705Z,17.67
2022-11-20T17:06:32.277Z,20.08
2022-11-20T17:08:59.528Z,14.45
2022-11-20T17:11:27.374Z,18.83
2022-11-20T17:14:00.586Z,15.15
2022-11-20T17:16:27.546Z,19.75
2022-11-20T17:19:01.054Z,15.75
2022-11-20T17:21:29.980Z,15.55
2022-11-20T17:23:58.232Z,18.60
2022-11-20T17:26:28.837Z,157.95
2022-11-20T17:28:59.113Z,11.45
2022-11-20T17:31:27.210Z,11.10
2022-11-20T17:33:54.272Z,11.68
2022-11-20T17:36:21.991Z,13.73
2022-11-20T17:38:49.211Z,14.43
2022-11-20T17:41:25.328Z,12.60
2022-11-20T17:44:00.054Z,91.28
2022-11-20T17:46:30.090Z,46.90
2022-11-20T17:48:57.095Z,8.93
2022-11-20T17:51:29.445Z,12.35
2022-11-20T17:53:59.083Z,11.05
2022-11-20T17:56:44.783Z,13.02
2022-11-20T17:59:13.299Z,11.65
2022-11-20T18:01:42.926Z,14.40
2022-11-20T18:04:10.698Z,15.60
2022-11-20T18:06:38.055Z,39.30
2022-11-20T18:09:06.577Z,48.88
2022-11-20T18:11:37.945Z,13.00
2022-11-20T18:14:25.345Z,13.18
2022-11-20T18:16:57.863Z,15.57
2022-11-20T18:19:31.977Z,22.27
2022-11-20T18:22:01.816Z,48.60
2022-11-20T18:24:28.887Z,18.25
2022-11-20T18:26:57.632Z,17.10
2022-11-20T18:29:25.331Z,50.92
2022-11-20T18:31:52.858Z,22.83
2022-11-20T18:34:19.773Z,19.83
2022-11-20T18:36:46.712Z,22.13
2022-11-20T18:39:15.009Z,23.20
2022-11-20T18:42:00.918Z,49.25
2022-11-20T18:44:48.648Z,22.00
2022-11-20T18:47:34.087Z,19.92
2022-11-20T18:50:02.562Z,21.27
2022-11-20T18:52:35.267Z,24.27
2022-11-20T18:55:03.696Z,16.45
2022-11-20T18:57:31.275Z,16.20
2022-11-20T19:00:07.988Z,20.52
2022-11-20T19:02:41.053Z,26.92
2022-11-20T19:05:10.385Z,14.48
2022-11-20T19:07:37.127Z,20.67
2022-11-20T19:10:04.638Z,26.63
2022-11-20T19:12:31.640Z,24.55
2022-11-20T19:14:58.381Z,24.20
2022-11-20T19:17:24.976Z,20.08
2022-11-20T19:19:52.204Z,28.83
2022-11-20T19:22:18.849Z,24.95
2022-11-20T19:24:46.090Z,30.48
2022-11-20T19:27:12.944Z,23.75
2022-11-20T19:29:39.813Z,30.63
2022-11-20T19:32:06.552Z,24.63
2022-11-20T19:34:33.361Z,25.83
2022-11-20T19:37:01.641Z,27.50
2022-11-20T19:39:28.403Z,25.33
2022-11-20T19:41:55.310Z,24.13
2022-11-20T19:44:22.056Z,27.73
2022-11-20T19:46:50.879Z,22.60
2022-11-20T19:49:17.912Z,27.02
2022-11-20T19:51:49.251Z,29.38
2022-11-20T19:54:17.567Z,25.88
2022-11-20T19:56:45.566Z,27.08
2022-11-20T19:59:13.717Z,30.33
2022-11-20T20:01:40.523Z,22.95
2022-11-20T20:04:07.320Z,25.23
2022-11-20T20:06:38.174Z,24.67
2022-11-20T20:09:13.103Z,27.75
2022-11-20T20:11:40.748Z,30.73
2022-11-20T20:14:10.465Z,26.23
2022-11-20T20:16:37.100Z,26.20
2022-11-20T20:19:04.911Z,26.13
2022-11-20T20:21:33.714Z,25.00
2022-11-20T20:24:00.783Z,31.35
2022-11-20T20:26:30.342Z,19.90
2022-11-20T20:28:56.994Z,30.45
2022-11-20T20:31:26.500Z,30.27
2022-11-20T20:33:54.816Z,29.45
2022-11-20T20:36:23.055Z,29.25
2022-11-20T20:38:54.661Z,26.15
2022-11-20T20:41:23.443Z,29.40
2022-11-20T20:44:09.234Z,35.35
2022-11-20T20:46:36.110Z,39.72
2022-11-20T20:49:03.194Z,43.35
2022-11-20T20:51:29.941Z,30.95
2022-11-20T20:53:56.682Z,28.95
2022-11-20T20:56:23.367Z,31.15
2022-11-20T20:58:50.070Z,34.60
2022-11-20T21:01:19.394Z,48.03
2022-11-20T21:03:46.694Z,32.33
2022-11-20T21:06:13.724Z,36.25
2022-11-20T21:08:42.078Z,27.48
2022-11-20T21:11:16.036Z,32.80
2022-11-20T21:13:44.602Z,26.98
2022-11-20T21:16:13.349Z,30.27
2022-11-20T21:18:40.216Z,24.48
2022-11-20T21:21:27.613Z,27.70
2022-11-20T21:23:54.291Z,21.27
2022-11-20T21:26:21.824Z,27.70
2022-11-20T21:28:49.949Z,27.65
2022-11-20T21:31:27.369Z,27.13
2022-11-20T21:33:56.308Z,22.98
2022-11-20T21:36:25.869Z,27.95
2022-11-20T21:38:56.735Z,33.25
2022-11-20T21:41:26.318Z,18.83
2022-11-20T21:44:29.053Z,20.98
2022-11-20T21:46:43.451Z,23.55
2022-11-20T21:49:11.199Z,17.40
2022-11-20T21:51:38.363Z,21.40
2022-11-20T21:54:05.303Z,17.20
2022-11-20T21:56:32.246Z,16.85
2022-11-20T21:58:58.915Z,14.38
2022-11-20T22:01:27.869Z,16.25
2022-11-20T22:04:00.581Z,21.33
2022-11-20T22:06:33.546Z,11.80
2022-11-20T22:09:01.000Z,16.45
2022-11-20T22:11:27.616Z,25.40
2022-11-20T22:14:13.197Z,16.50
2022-11-20T22:16:39.964Z,14.93
2022-11-20T22:19:07.202Z,16.60
2022-11-20T22:21:34.772Z,26.27
2022-11-20T22:24:01.924Z,13.05
2022-11-20T22:26:32.964Z,16.30
2022-11-20T22:29:03.392Z,19.90
2022-11-20T22:31:31.353Z,23.25
2022-11-20T22:34:00.865Z,19.70
2022-11-20T22:36:29.321Z,19.40
2022-11-20T22:38:56.774Z,14.25
2022-11-20T22:41:27.345Z,17.42
2022-11-20T22:43:59.434Z,14.73
2022-11-20T22:46:29.184Z,19.73
2022-11-20T22:48:57.728Z,16.95
2022-11-20T22:51:27.082Z,15.88
2022-11-20T22:53:53.990Z,15.77
2022-11-20T22:56:21.764Z,18.90
2022-11-20T22:58:51.281Z,21.48
2022-11-20T23:01:24.001Z,20.40
2022-11-20T23:03:55.844Z,11.27
2022-11-20T23:06:23.394Z,71.93
2022-11-20T23:08:50.724Z,19.13
2022-11-20T23:11:20.254Z,20.52
2022-11-20T23:13:47.499Z,16.65
2022-11-20T23:16:16.799Z,19.70
2022-11-20T23:18:45.201Z,12.93
2022-11-20T23:21:17.398Z,17.00
2022-11-20T23:23:48.585Z,13.32
2022-11-20T23:26:16.833Z,15.15
2022-11-20T23:28:44.163Z,13.05
2022-11-20T23:31:12.926Z,14.68
2022-11-20T23:33:41.078Z,15.90
2022-11-20T23:36:08.546Z,20.75
2022-11-20T23:38:35.654Z,17.30
2022-11-20T23:41:02.871Z,19.02
2022-11-20T23:43:29.650Z,11.70
2022-11-20T23:45:58.801Z,18.45
2022-11-20T23:48:28.785Z,12.20
2022-11-20T23:50:56.211Z,15.07
2022-11-20T23:53:24.082Z,16.20
2022-11-20T23:55:55.971Z,15.45
2022-11-20T23:58:26.022Z,17.65
